• Join FlightAware (Why Join?)
  • Login
  • US Flag 
12:54PM EDT


 

Airport Tracker/Info


-or-


 

Live Flight TrackerFlight Track Log ✈ UAL582 ✈ 20-Apr-2013 ✈ KLAX - KIAD

Flight Track Log - Related Links

Times and Time Zones

All times are in EDT time to prevent confusion due to time zone crossing. See the UAL582 flight status page for this flight to view local times or setup timezone preferences in your user account.

Time Position Orientation Groundspeed Altitude Reporting Facility
EDT Latitude Longitude Course Direction KTS MPH feet Rate Location/Type
02:49AM 33.9339 -118.4433 90° East 191 220 1,400  Level Los Angeles Center
02:50AM 33.8956 -118.5061 234° Southwest 237 273 3,800 2,400 Climbing Los Angeles Center
02:51AM 33.7490 -118.5987 134° Southeast  Level FlightAware Approximate
02:51AM 33.8414 -118.5592 219° Southwest 261 300 6,300  Level Los Angeles Center
02:52AM 33.6759 -118.4718 101° East  Level FlightAware Approximate
02:52AM 33.7700 -118.5411 168° South 273 314 8,700  Level Los Angeles Center
02:53AM 33.6333 -118.3225 90° East  Level FlightAware Approximate
02:53AM 33.6967 -118.5044 157° South 298 343 11,100  Level Los Angeles Center
02:54AM 33.6333 -118.1630 90° East  Level FlightAware Approximate
02:54AM 33.6628 -118.4089 113° Southeast 315 362 13,000  Level Los Angeles Center
02:55AM 33.6442 -118.2961 101° East 352 405 14,600 1,680 Climbing Los Angeles Center
02:56AM 33.6461 -118.1725 89° East 377 434 16,500 1,920 Climbing Los Angeles Center
02:57AM 33.6450 -118.0414 91° East 393 452 18,500 1,920 Climbing Los Angeles Center
02:58AM 33.6458 -117.9044 90° East 409 471 20,400 2,040 Climbing Los Angeles Center
02:59AM 33.6583 -117.7383 85° East 421 484 22,700 1,920 Climbing Los Angeles Center
03:00AM 33.6806 -117.5958 79° East 434 499 24,300 1,500 Climbing Los Angeles Center
03:01AM 33.7036 -117.4517 79° East 441 507 25,800 1,380 Climbing Los Angeles Center
03:02AM 33.7286 -117.3019 79° East 457 526 27,200 1,260 Climbing Los Angeles Center
03:03AM 33.7539 -117.1486 79° East 468 539 28,400 1,080 Climbing Los Angeles Center
03:04AM 33.7789 -116.9919 79° East 477 549 29,400 900 Climbing Los Angeles Center
03:05AM 33.8039 -116.8308 79° East 491 565 30,300 1,200 Climbing Los Angeles Center
03:06AM 33.8306 -116.6647 79° East 500 575 31,900 1,560 Climbing Los Angeles Center
03:07AM 33.8564 -116.5025 79° East 497 572 33,500 1,440 Climbing Los Angeles Center
03:08AM 33.8806 -116.3489 79° East 484 557 34,800 720 Climbing Los Angeles Center
03:09AM 33.9044 -116.1925 80° East 477 549 35,000 60 Climbing Los Angeles Center
03:10AM 33.9272 -116.0342 80° East 479 551 35,000  Level Los Angeles Center
03:11AM 33.9522 -115.8772 79° East 478 550 35,000  Level Los Angeles Center
03:12AM 33.9742 -115.7164 81° East 482 555 35,000  Level Los Angeles Center
03:13AM 33.9981 -115.5583 80° East 480 552 35,000  Level Los Angeles Center
03:14AM 34.0206 -115.4014 80° East 476 548 35,000  Level Los Angeles Center
03:15AM 34.0439 -115.2447 80° East 477 549 35,000  Level Los Angeles Center
03:16AM 34.0667 -115.0883 80° East 475 547 35,000  Level Los Angeles Center
03:17AM 34.0883 -114.9319 80° East 475 547 35,000  Level Los Angeles Center
03:18AM 34.1114 -114.7761 80° East 473 544 35,000  Level Los Angeles Center
03:19AM 34.1336 -114.6200 80° East 472 543 35,000 -60 Level Los Angeles Center
03:20AM 34.1558 -114.4633 80° East 473 544 34,900  Descending Los Angeles Center
03:20AM 34.1686 -114.3733 80° East 474 545 35,000 60 Climbing Albuquerque Center
03:21AM 34.1906 -114.2142 80° East 476 548 35,000  Level Albuquerque Center
03:22AM 34.2103 -114.0572 81° East 476 548 35,000  Level Albuquerque Center
03:23AM 34.2314 -113.8992 81° East 476 548 35,000  Level Albuquerque Center
03:24AM 34.2544 -113.7419 80° East 476 548 35,000  Level Albuquerque Center
03:25AM 34.2753 -113.5733 81° East 474 545 35,000  Level Albuquerque Center
03:26AM 34.2969 -113.4142 81° East 478 550 35,000  Level Albuquerque Center
03:27AM 34.3172 -113.2544 81° East 481 554 35,000  Level Albuquerque Center
03:28AM 34.3381 -113.0947 81° East 480 552 35,000  Level Albuquerque Center
03:29AM 34.3578 -112.9342 81° East 482 555 35,000  Level Albuquerque Center
03:30AM 34.3783 -112.7722 81° East 484 557 35,000  Level Albuquerque Center
03:31AM 34.3986 -112.6119 81° East 484 557 35,000  Level Albuquerque Center
03:32AM 34.4178 -112.4481 82° East 487 560 35,000  Level Albuquerque Center
03:33AM 34.4375 -112.2850 82° East 489 563 35,000  Level Albuquerque Center
03:34AM 34.4572 -112.1217 82° East 489 563 35,000  Level Albuquerque Center
03:35AM 34.4764 -111.9564 82° East 491 565 35,000  Level Albuquerque Center
03:36AM 34.4958 -111.7922 82° East 490 564 35,000  Level Albuquerque Center
03:37AM 34.5147 -111.6261 82° East 492 566 35,000  Level Albuquerque Center
03:38AM 34.5333 -111.4603 82° East 494 568 35,000  Level Albuquerque Center
03:39AM 34.5522 -111.2928 82° East 498 573 35,000  Level Albuquerque Center
03:40AM 34.5711 -111.1247 82° East 501 577 35,000  Level Albuquerque Center
03:41AM 34.5894 -110.9561 82° East 504 580 35,000  Level Albuquerque Center
03:42AM 34.6075 -110.7883 83° East 503 579 35,000  Level Albuquerque Center
03:43AM 34.6269 -110.6231 82° East 504 580 35,000  Level Albuquerque Center
03:44AM 34.6431 -110.4631 83° East 501 577 35,000  Level Albuquerque Center
03:45AM 34.6603 -110.3033 82° East 500 575 35,000  Level Albuquerque Center
03:46AM 34.6786 -110.1164 83° East 500 575 35,000  Level Albuquerque Center
03:47AM 34.6942 -109.9575 83° East 498 573 35,000  Level Albuquerque Center
03:48AM 34.7097 -109.7997 83° East 495 570 35,000  Level Albuquerque Center
03:49AM 34.7286 -109.6158 83° East 492 566 35,000  Level Albuquerque Center
03:50AM 34.7444 -109.4567 83° East 495 570 35,000  Level Albuquerque Center
03:51AM 34.7594 -109.2972 83° East 496 571 35,000  Level Albuquerque Center
03:52AM 34.7736 -109.1367 84° East 498 573 35,000  Level Albuquerque Center
03:53AM 34.7914 -108.9497 83° East 500 575 35,000 420 Level Albuquerque Center
03:54AM 34.8061 -108.7886 84° East 502 578 35,900 840 Climbing Albuquerque Center
03:56AM 34.8203 -108.6275 84° East 502 578 36,700 540 Climbing Albuquerque Center
03:57AM 34.8361 -108.4533 84° East 503 579 37,000 120 Climbing Albuquerque Center
03:58AM 34.8506 -108.2775 84° East 503 579 37,000  Level Albuquerque Center
03:59AM 34.8650 -108.1150 84° East 505 581 37,000  Level Albuquerque Center
04:00AM 34.8814 -107.9253 84° East 506 582 37,000  Level Albuquerque Center
04:01AM 34.8936 -107.7742 84° East 506 582 37,000  Level Albuquerque Center
04:02AM 34.9072 -107.6036 84° East 506 582 37,000  Level Albuquerque Center
04:03AM 34.9208 -107.4350 84° East 504 580 37,000  Level Albuquerque Center
04:04AM 34.9339 -107.2644 85° East 507 583 37,000  Level Albuquerque Center
04:05AM 34.9492 -107.0822 84° East 510 587 37,000  Level Albuquerque Center
04:06AM 34.9603 -106.9186 85° East 507 583 37,000  Level Albuquerque Center
04:07AM 34.9725 -106.7275 85° East 504 580 37,000  Level Albuquerque Center
04:08AM 34.9847 -106.5622 85° East 510 587 37,000  Level Albuquerque Center
04:09AM 34.9950 -106.4139 85° East 522 601 37,000  Level Albuquerque Center
04:10AM 35.0069 -106.2428 85° East 512 589 37,000  Level Albuquerque Center
04:11AM 35.0200 -106.0692 85° East 513 590 37,000  Level Albuquerque Center
04:12AM 35.0331 -105.8667 85° East 514 592 37,000  Level Albuquerque Center
04:13AM 35.0442 -105.6922 86° East 513 590 37,000  Level Albuquerque Center
04:14AM 35.0558 -105.5158 85° East 516 594 37,000  Level Albuquerque Center
04:15AM 35.0664 -105.3392 86° East 516 594 37,000  Level Albuquerque Center
04:16AM 35.0772 -105.1653 86° East 513 590 37,000  Level Albuquerque Center
04:17AM 35.0878 -104.9928 86° East 508 585 37,000  Level Albuquerque Center
04:18AM 35.0981 -104.8203 86° East 504 580 37,000  Level Albuquerque Center
04:19AM 35.1069 -104.6472 86° East 507 583 37,000  Level Albuquerque Center
04:20AM 35.1186 -104.4733 85° East 511 588 37,000  Level Albuquerque Center
04:21AM 35.1278 -104.3006 86° East 512 589 37,000  Level Albuquerque Center
04:22AM 35.1378 -104.1256 86° East 516 594 37,000  Level Albuquerque Center
04:23AM 35.1458 -103.9503 87° East 517 595 37,000  Level Albuquerque Center
04:24AM 35.1539 -103.7767 87° East 521 600 37,000  Level Albuquerque Center
04:25AM 35.1622 -103.6003 87° East 519 597 37,000  Level Albuquerque Center
04:26AM 35.1703 -103.4219 87° East 520 598 37,000  Level Albuquerque Center
04:27AM 35.1778 -103.2433 87° East 522 601 37,000  Level Albuquerque Center
04:28AM 35.1850 -103.0636 87° East 525 604 37,000  Level Albuquerque Center
04:29AM 35.1922 -102.8889 87° East 525 604 37,000  Level Albuquerque Center
04:30AM 35.1986 -102.7122 87° East 523 602 37,000  Level Albuquerque Center
04:31AM 35.2047 -102.5336 88° East 526 605 37,000  Level Albuquerque Center
04:32AM 35.2114 -102.3572 87° East 523 602 37,000  Level Albuquerque Center
04:33AM 35.2178 -102.1833 87° East 517 595 37,000  Level Albuquerque Center
04:34AM 35.2242 -102.0100 87° East 513 590 37,000  Level Albuquerque Center
04:35AM 35.2319 -101.8511 87° East 510 587 37,000  Level Albuquerque Center
04:36AM 35.2364 -101.6761 88° East 510 587 37,000  Level Albuquerque Center
04:37AM 35.2442 -101.5036 87° East 509 586 37,000  Level Albuquerque Center
04:38AM 35.2539 -101.3314 86° East 509 586 37,000  Level Albuquerque Center
04:39AM 35.2600 -101.1647 87° East 509 586 37,000  Level Albuquerque Center
04:40AM 35.2681 -100.9936 87° East 507 583 37,000  Level Albuquerque Center
04:41AM 35.2744 -100.8206 87° East 508 585 37,000  Level Albuquerque Center
04:42AM 35.2817 -100.6386 87° East 512 589 37,000  Level Albuquerque Center
04:43AM 35.2886 -100.4636 87° East 514 592 37,000  Level Albuquerque Center
04:44AM 35.2944 -100.2875 88° East 516 594 37,000  Level Albuquerque Center
04:45AM 35.3003 -100.1117 88° East 518 596 37,000  Level Albuquerque Center
04:46AM 35.3069 -99.9356 87° East 518 596 37,000  Level Albuquerque Center
04:47AM 35.3122 -99.7586 88° East 520 598 37,000  Level Albuquerque Center
04:48AM 35.3172 -99.5814 88° East 521 600 37,000  Level Albuquerque Center
04:49AM 35.3222 -99.4033 88° East 524 603 37,000  Level Albuquerque Center
04:49AM 35.3258 -99.2533 88° East 513 590 37,000  Level Fort Worth Center
04:50AM 35.3283 -99.0750 89° East 513 590 37,000  Level Fort Worth Center
04:51AM 35.3347 -98.9150 87° East 513 590 37,000  Level Fort Worth Center
04:52AM 35.3428 -98.7394 87° East 513 590 37,000  Level Fort Worth Center
04:53AM 35.3550 -98.5692 85° East 513 590 37,000  Level Fort Worth Center
04:54AM 35.3689 -98.3886 85° East 500 575 37,000  Level Fort Worth Center
04:55AM 35.3786 -98.2233 86° East 493 567 37,000  Level Fort Worth Center
04:56AM 35.3900 -98.0578 85° East 493 567 37,000  Level Fort Worth Center
04:57AM 35.3992 -97.8922 86° East 487 560 37,000  Level Fort Worth Center
04:58AM 35.4078 -97.7269 86° East 487 560 37,000  Level Fort Worth Center
04:59AM 35.4186 -97.5589 85° East 487 560 37,000  Level Fort Worth Center
05:00AM 35.4292 -97.3856 86° East 493 567 37,000  Level Fort Worth Center
05:01AM 35.4372 -97.2122 87° East 499 574 37,000  Level Fort Worth Center
05:02AM 35.4453 -97.0569 86° East 499 574 37,000  Level Fort Worth Center
05:03AM 35.4531 -96.8886 87° East 499 574 37,000  Level Fort Worth Center
05:04AM 35.4628 -96.7203 86° East 499 574 37,000  Level Fort Worth Center
05:05AM 35.4700 -96.5469 87° East 499 574 37,000  Level Fort Worth Center
05:06AM 35.4792 -96.3761 86° East 499 574 37,000  Level Fort Worth Center
05:07AM 35.4881 -96.2053 86° East 499 574 37,000  Level Fort Worth Center
05:08AM 35.4944 -96.0317 87° East 499 574 37,000  Level Fort Worth Center
05:09AM 35.5028 -95.8428 87° East 499 574 37,000  Level Fort Worth Center
05:10AM 35.5006 -95.6722 91° East 499 574 37,000  Level Fort Worth Center
05:11AM 35.5022 -95.4936 89° East 499 574 37,000  Level Fort Worth Center
05:12AM 35.5036 -95.3203 89° East 504 580 37,000  Level Fort Worth Center
05:13AM 35.5025 -95.1469 90° East 504 580 37,000  Level Fort Worth Center
05:14AM 35.5075 -94.9708 88° East 509 586 37,000  Level Fort Worth Center
05:16AM 35.5650 -94.8036 67° East  Level FlightAware Approximate
05:23AM 35.8704 -93.7074 72° East  Level FlightAware Approximate
05:24AM 35.9120 -93.5497 72° East  Level FlightAware Approximate
05:25AM 35.9533 -93.3919 72° East  Level FlightAware Approximate
05:26AM 35.9944 -93.2339 72° East  Level FlightAware Approximate
05:27AM 36.0353 -93.0757 73° East  Level FlightAware Approximate
05:28AM 36.0750 -92.9170 73° East  Level FlightAware Approximate
05:29AM 36.1147 -92.7581 73° East  Level FlightAware Approximate
05:30AM 36.1544 -92.5993 73° East  Level FlightAware Approximate
05:31AM 36.1943 -92.4404 73° East  Level FlightAware Approximate
05:32AM 36.2342 -92.2814 73° East  Level FlightAware Approximate
05:33AM 36.2738 -92.1222 73° East  Level FlightAware Approximate
05:34AM 36.3134 -91.9630 73° East  Level FlightAware Approximate
05:35AM 36.3529 -91.8036 73° East  Level FlightAware Approximate
05:36AM 36.3922 -91.6441 73° East  Level FlightAware Approximate
05:37AM 36.4313 -91.4844 73° East  Level FlightAware Approximate
05:38AM 36.4701 -91.3245 73° East  Level FlightAware Approximate
05:39AM 36.5088 -91.1645 73° East  Level FlightAware Approximate
05:40AM 36.5472 -91.0043 73° East  Level FlightAware Approximate
05:41AM 36.5855 -90.8440 73° East  Level FlightAware Approximate
05:42AM 36.6235 -90.6835 74° East  Level FlightAware Approximate
05:43AM 36.6613 -90.5229 74° East  Level FlightAware Approximate
05:44AM 36.6988 -90.3621 74° East  Level FlightAware Approximate
05:45AM 36.7362 -90.2011 74° East  Level FlightAware Approximate
05:46AM 36.7734 -90.0400 74° East  Level FlightAware Approximate
05:47AM 36.8103 -89.8787 74° East  Level FlightAware Approximate
05:48AM 36.8470 -89.7173 74° East  Level FlightAware Approximate
05:49AM 36.8835 -89.5557 74° East  Level FlightAware Approximate
05:50AM 36.9198 -89.3940 74° East  Level FlightAware Approximate
05:51AM 36.9562 -89.2322 74° East  Level FlightAware Approximate
05:52AM 36.9926 -89.0704 74° East  Level FlightAware Approximate
05:52AM 37.0281 -88.9614 75° East 509 586 37,000  Level Memphis Center
05:53AM 37.0287 -88.9083 74° East  Level FlightAware Approximate
05:53AM 37.0617 -88.8075 75° East 486 559 37,000  Level Memphis Center
05:54AM 37.0646 -88.7462 74° East  Level FlightAware Approximate
05:54AM 37.0972 -88.6456 75° East 473 544 37,000  Level Memphis Center
05:55AM 37.1003 -88.5839 75° East  Level FlightAware Approximate
05:56AM 37.1358 -88.4214 75° East  Level FlightAware Approximate
05:56AM 37.1500 -88.3739 76° East 480 552 37,000  Level Indianapolis Center
05:57AM 37.1711 -88.2588 75° East  Level FlightAware Approximate
05:57AM 37.1864 -88.2064 75° East 488 562 37,000  Level Indianapolis Center
05:58AM 37.2244 -88.0389 74° East 493 567 37,000  Level Indianapolis Center
05:59AM 37.2581 -87.8703 76° East 494 568 37,000  Level Indianapolis Center
06:00AM 37.2939 -87.6997 75° East 497 572 37,000  Level Indianapolis Center
06:01AM 37.3289 -87.5306 75° East 496 571 37,000  Level Indianapolis Center
06:02AM 37.3636 -87.3617 75° East 495 570 37,000  Level Indianapolis Center
06:03AM 37.3989 -87.1908 75° East 497 572 37,000  Level Indianapolis Center
06:04AM 37.4328 -87.0206 76° East 497 572 37,000  Level Indianapolis Center
06:05AM 37.4678 -86.8514 75° East 495 570 37,000  Level Indianapolis Center
06:06AM 37.5017 -86.6794 76° East 497 572 37,000  Level Indianapolis Center
06:07AM 37.5367 -86.5083 75° East 499 574 37,000  Level Indianapolis Center
06:08AM 37.5636 -86.3656 77° East 498 573 37,000  Level Indianapolis Center
06:09AM 37.6008 -86.1728 76° East 500 575 37,000  Level Indianapolis Center
06:10AM 37.6331 -86.0028 76° East 499 574 37,000  Level Indianapolis Center
06:11AM 37.6642 -85.8333 77° East 497 572 37,000  Level Indianapolis Center
06:12AM 37.6989 -85.6592 76° East 506 582 37,000  Level Indianapolis Center
06:13AM 37.7286 -85.5058 76° East 503 579 37,000  Level Indianapolis Center
06:14AM 37.7578 -85.3361 78° East 494 568 37,000  Level Indianapolis Center
06:15AM 37.7908 -85.1625 76° East 502 578 37,000  Level Indianapolis Center
06:16AM 37.8222 -84.9903 77° East 502 578 37,000  Level Indianapolis Center
06:17AM 37.8542 -84.8158 77° East 508 585 37,000  Level Indianapolis Center
06:18AM 37.8836 -84.6425 78° East 504 580 37,000  Level Indianapolis Center
06:19AM 37.9169 -84.4681 76° East 508 585 37,000  Level Indianapolis Center
06:20AM 37.9472 -84.2947 77° East 506 582 37,000  Level Indianapolis Center
06:21AM 37.9783 -84.1206 77° East 504 580 37,000  Level Indianapolis Center
06:22AM 38.0086 -83.9450 78° East 509 586 37,000  Level Indianapolis Center
06:23AM 38.0394 -83.7664 78° East 515 593 37,000  Level Indianapolis Center
06:24AM 38.0697 -83.5911 78° East 510 587 37,000  Level Indianapolis Center
06:25AM 38.0978 -83.4181 78° East 504 580 37,000  Level Indianapolis Center
06:26AM 38.1278 -83.2400 78° East 510 587 37,000  Level Indianapolis Center
06:27AM 38.1497 -83.0625 81° East 509 586 37,000  Level Indianapolis Center
06:28AM 38.1583 -82.8839 86° East 505 581 37,000  Level Indianapolis Center
06:29AM 38.1708 -82.7047 85° East 506 582 37,000  Level Indianapolis Center
06:30AM 38.1839 -82.5275 85° East 504 580 37,000  Level Indianapolis Center
06:31AM 38.1958 -82.3444 85° East 507 583 37,000  Level Indianapolis Center
06:32AM 38.2075 -82.1664 85° East 508 585 37,000  Level Indianapolis Center
06:33AM 38.2197 -81.9914 85° East 501 577 37,000  Level Indianapolis Center
06:34AM 38.2294 -81.8122 86° East 508 585 37,000  Level Indianapolis Center
06:35AM 38.2400 -81.6336 86° East 510 587 37,000  Level Indianapolis Center
06:36AM 38.2500 -81.4558 86° East 510 587 37,000  Level Indianapolis Center
06:37AM 38.2592 -81.2761 86° East 513 590 37,000  Level Indianapolis Center
06:38AM 38.2669 -81.1167 86° East 491 565 37,000  Level Washington Center
06:39AM 38.2781 -80.9189 86° East 503 579 37,000  Level Washington Center
06:40AM 38.2900 -80.7400 85° East 503 579 37,000  Level Washington Center
06:41AM 38.3000 -80.5581 86° East 503 579 37,000 -120 Level Washington Center
06:42AM 38.3175 -80.3792 83° East 508 585 36,800 -1,320 Descending Washington Center
06:43AM 38.3517 -80.2014 76° East 513 590 34,400 -2,160 Descending Washington Center
06:44AM 38.3889 -80.0447 73° East 518 596 32,500 -2,460 Descending Washington Center
06:45AM 38.4244 -79.8692 75° East 518 596 29,500 -2,580 Descending Washington Center
06:46AM 38.4636 -79.7019 73° East 505 581 27,400 -2,100 Descending Washington Center
06:47AM 38.4964 -79.5364 76° East 493 567 25,400 -2,040 Descending Washington Center
06:48AM 38.5306 -79.3792 74° East 478 550 23,400 -2,400 Descending Washington Center
06:49AM 38.5653 -79.2028 76° East 465 535 20,600 -2,400 Descending Washington Center
06:50AM 38.5969 -79.0503 75° East 455 524 18,600 -1,680 Descending Washington Center
06:51AM 38.6258 -78.9081 75° East 429 494 17,300 -1,620 Descending Washington Center
06:52AM 38.6525 -78.7739 76° East 407 468 15,400 -1,800 Descending Washington Center
06:53AM 38.6789 -78.6419 76° East 393 452 13,700 -1,740 Descending Washington Center
06:54AM 38.7028 -78.5178 76° East 371 427 12,000 -1,380 Descending Washington Center
06:55AM 38.7306 -78.3939 74° East 360 414 11,000 -840 Descending Washington Center
06:56AM 38.7867 -78.3108 49° Northeast 317 365 10,400 -660 Descending Washington Center
06:57AM 38.8589 -78.2603 29° Northeast 291 335 9,700 -660 Descending Washington Center
06:58AM 38.9328 -78.2147 26° Northeast 291 335 9,100 -600 Descending Washington Center
06:59AM 38.9883 -78.1500 42° Northeast 281 323 8,600 -600 Descending Washington Center
07:00AM 38.9842 -78.0458 93° East 248 285 8,000 -600 Descending Washington Center
07:01AM 38.9781 -77.9442 94° East 263 303 7,500 -600 Descending Washington Center
07:02AM 38.9733 -77.8531 94° East 280 322 6,900 -600 Descending Washington Center
07:03AM 38.9650 -77.7381 95° East 288 331 6,300 -420 Descending Washington Center
07:04AM 38.9500 -77.6167 99° East 251 289 6,100 -180 Descending Potomac TRACON
07:05AM 38.8833 -77.5833 159° South 225 259 6,000 -60 Descending Potomac TRACON
07:06AM 38.8333 -77.5667 165° South 201 231 6,000 -660 Level Potomac TRACON
07:07AM 38.7833 -77.5500 165° South 220 253 4,800 -1,020 Descending Potomac TRACON
07:08AM 38.7833 -77.4833 90° East 196 226 4,000 -840 Descending Potomac TRACON